»·PEaware :: N6956H KSBP-KPSP

N6956H :: KSBP-KPSP

FLIGHT INFORMATION

Flight Status: Arrived
Operator: Privately registered:
United States
More flights under this callsign
Pilot: Joe C. (19058)
Aircraft: SOCATA TBM-900
(TBM9)
More flights by this aircraft type
Origin: KSBP San Luis Co Regl
United States
Destination: KPSP Palm Springs Intl
United States
More flights between these airports :: More routes between these airports
Route: +CREPE3 MQO GVO V12 RZS SXC NIKKL V64 TRM
File this flight plan on PilotEdge
Remarks:
Altitude:
(Current/Filed)
35,000ft
Speed:
(Current/Filed)
300kts
Departed: 01-Nov-18 05:22 PM
Arrived: 01-Nov-18 06:35 PM
Distance/Time
Traveled:
221nm/1:13
Distance/Time
To Go:
Arrived

Flight Plot

Page will automatically refresh every two minutes.

Flight plan parsing failed; only flown route is shown


Map Options




Map Legend


Flown Route
Filed Route
Departure Airport
Arrival Airport
Navaid (VOR, NDB)
Fix

Horizontal Profiles

Position Reports

Time Latitude Longitude Heading Altitude Ground
Speed
01-Nov-18 16:53 35.238407 -120.640083 295 190ft 0kts
01-Nov-18 16:54 35.238407 -120.640083 295 190ft 0kts
01-Nov-18 16:55 35.238407 -120.640083 295 190ft 0kts
01-Nov-18 16:56 35.238407 -120.640083 295 190ft 0kts
01-Nov-18 16:57 35.238407 -120.640083 295 190ft 0kts
01-Nov-18 16:58 35.238407 -120.640083 295 190ft 0kts
01-Nov-18 16:59 35.238407 -120.640083 295 190ft 0kts
01-Nov-18 17:00 35.238407 -120.640083 295 190ft 0kts
01-Nov-18 17:01 35.238407 -120.640083 295 190ft 0kts
01-Nov-18 17:02 35.238407 -120.640083 295 190ft 0kts
01-Nov-18 17:03 35.238407 -120.640083 295 190ft 0kts
01-Nov-18 17:04 35.238407 -120.640083 295 190ft 0kts
01-Nov-18 17:05 35.238407 -120.640083 295 190ft 0kts
01-Nov-18 17:06 35.238407 -120.640083 295 190ft 0kts
01-Nov-18 17:07 35.238407 -120.640083 295 190ft 0kts
01-Nov-18 17:08 35.238407 -120.640083 295 190ft 0kts
01-Nov-18 17:09 35.238407 -120.640083 295 190ft 0kts
01-Nov-18 17:10 35.238407 -120.640083 295 190ft 0kts
01-Nov-18 17:11 35.238407 -120.640083 295 190ft 0kts
01-Nov-18 17:12 35.238407 -120.640083 295 190ft 0kts
01-Nov-18 17:13 35.238407 -120.640083 295 190ft 0kts
01-Nov-18 17:14 35.238407 -120.640083 295 190ft 0kts
01-Nov-18 17:15 35.238407 -120.640083 295 190ft 0kts
01-Nov-18 17:16 35.238407 -120.640083 295 190ft 0kts
01-Nov-18 17:17 35.238407 -120.640083 295 190ft 0kts
01-Nov-18 17:18 35.238331 -120.640370 216 189ft 1kts
01-Nov-18 17:19 35.238330 -120.640371 216 189ft 0kts
01-Nov-18 17:20 35.236982 -120.638473 125 196ft 15kts
01-Nov-18 17:21 35.235170 -120.635296 124 209ft 9kts
01-Nov-18 17:22 35.233239 -120.632387 209 212ft 0kts
01-Nov-18 17:23 35.233239 -120.632387 209 212ft 0kts
01-Nov-18 17:24 35.233239 -120.632387 209 212ft 0kts
01-Nov-18 17:25 35.235680 -120.638180 302 197ft 102kts
01-Nov-18 17:26 35.253064 -120.675317 299 1992ft 129kts
01-Nov-18 17:27 35.272882 -120.710615 304 4129ft 128kts
01-Nov-18 17:28 35.297947 -120.752920 305 5105ft 199kts
01-Nov-18 17:29 35.325193 -120.798941 303 7648ft 156kts
01-Nov-18 17:30 35.290956 -120.819203 128 8058ft 238kts
01-Nov-18 17:31 35.262464 -120.761673 129 10481ft 185kts
01-Nov-18 17:32 35.225413 -120.722712 134 12764ft 161kts
01-Nov-18 17:33 35.189919 -120.689368 135 14716ft 166kts
01-Nov-18 17:34 35.152202 -120.654664 135 16483ft 174kts
01-Nov-18 17:35 35.112960 -120.618703 135 18102ft 181kts
01-Nov-18 17:36 35.071486 -120.580766 135 20048ft 190kts
01-Nov-18 17:37 35.028903 -120.541861 135 21847ft 197kts
01-Nov-18 17:38 34.983836 -120.500664 136 23142ft 224kts
01-Nov-18 17:39 34.933399 -120.454903 135 25052ft 209kts
01-Nov-18 17:40 34.887867 -120.413385 135 26741ft 212kts
01-Nov-18 17:41 34.839859 -120.369765 135 28273ft 220kts
01-Nov-18 17:42 34.790101 -120.324640 136 29648ft 227kts
01-Nov-18 17:43 34.738848 -120.278233 137 30818ft 234kts
01-Nov-18 17:44 34.685815 -120.230290 137 31907ft 243kts
01-Nov-18 17:45 34.626786 -120.177011 138 32056ft 283kts
01-Nov-18 17:46 34.560851 -120.117044 132 31947ft 313kts
01-Nov-18 17:47 34.527043 -120.024048 87 31537ft 307kts
01-Nov-18 17:48 34.519720 -119.919030 87 31106ft 317kts
01-Nov-18 17:49 34.512502 -119.814003 87 31088ft 311kts
01-Nov-18 17:50 34.487732 -119.713700 124 31077ft 331kts
01-Nov-18 17:51 34.404324 -119.669670 182 31079ft 343kts
01-Nov-18 17:52 34.313978 -119.649685 140 31087ft 335kts
01-Nov-18 17:53 34.267683 -119.559448 111 31077ft 321kts
01-Nov-18 17:53 34.229270 -119.481642 114 31086ft 324kts
01-Nov-18 17:54 34.177636 -119.392420 130 31073ft 332kts
01-Nov-18 17:56 34.103087 -119.300400 129 31086ft 332kts
01-Nov-18 17:56 34.049066 -119.234265 129 31089ft 332kts
01-Nov-18 17:57 33.984247 -119.155105 129 31094ft 332kts
01-Nov-18 17:58 33.919465 -119.076175 129 31097ft 332kts
01-Nov-18 17:59 33.854497 -118.997196 129 31086ft 332kts
01-Nov-18 18:00 33.789696 -118.918630 128 31087ft 332kts
01-Nov-18 18:01 33.724414 -118.839646 127 31094ft 333kts
01-Nov-18 18:02 33.659027 -118.760676 127 31111ft 335kts
01-Nov-18 18:03 33.593316 -118.681516 127 31134ft 335kts
01-Nov-18 18:04 33.527405 -118.602310 127 31138ft 336kts
01-Nov-18 18:05 33.457603 -118.518555 128 29594ft 373kts
01-Nov-18 18:06 33.405101 -118.415880 91 27834ft 356kts
01-Nov-18 18:07 33.413133 -118.304344 57 26069ft 332kts
01-Nov-18 18:08 33.449017 -118.205030 62 24324ft 330kts
01-Nov-18 18:09 33.481821 -118.109275 61 24077ft 294kts
01-Nov-18 18:10 33.511939 -118.021159 61 24076ft 280kts
01-Nov-18 18:11 33.540953 -117.936033 61 24078ft 274kts
01-Nov-18 18:12 33.569562 -117.851834 61 24079ft 272kts
01-Nov-18 18:13 33.598002 -117.767921 61 24081ft 271kts
01-Nov-18 18:14 33.626235 -117.684390 61 24082ft 271kts
01-Nov-18 18:15 33.655541 -117.597629 61 23152ft 294kts
01-Nov-18 18:16 33.686852 -117.504436 62 21795ft 306kts
01-Nov-18 18:17 33.718555 -117.409786 63 20429ft 299kts
01-Nov-18 18:18 33.726046 -117.311737 90 18765ft 309kts
01-Nov-18 18:19 33.717784 -117.210174 90 17348ft 302kts
01-Nov-18 18:20 33.709655 -117.110436 90 16026ft 298kts
01-Nov-18 18:21 33.701514 -117.011639 91 14720ft 299kts
01-Nov-18 18:22 33.693351 -116.913370 91 14004ft 286kts
01-Nov-18 18:23 33.685553 -116.820651 90 14006ft 275kts
01-Nov-18 18:24 33.677841 -116.729534 91 14007ft 273kts
01-Nov-18 18:25 33.670084 -116.638611 91 13701ft 284kts
01-Nov-18 18:26 33.662017 -116.544885 91 11903ft 277kts
01-Nov-18 18:27 33.654334 -116.456683 92 10067ft 248kts
01-Nov-18 18:28 33.647447 -116.377982 92 8236ft 229kts
01-Nov-18 18:29 33.641685 -116.303186 83 6387ft 223kts
01-Nov-18 18:30 33.681351 -116.294507 314 4424ft 191kts
01-Nov-18 18:31 33.704676 -116.340590 305 3378ft 165kts
01-Nov-18 18:32 33.727088 -116.378803 303 2543ft 127kts
01-Nov-18 18:33 33.746441 -116.411555 302 2166ft 111kts
01-Nov-18 18:34 33.767108 -116.443842 309 1758ft 133kts
01-Nov-18 18:35 33.791138 -116.471676 318 1464ft 109kts
01-Nov-18 18:36 33.816553 -116.495963 321 638ft 111kts
01-Nov-18 18:37 33.828765 -116.508295 267 424ft 0kts

Navigation Log

Ident Type
Flight plan parsing failed, navigation log unavailable